createdAt,value
2023-03-06T00:00:50.919Z,72.77
2023-03-06T00:03:22.349Z,73.04
2023-03-06T00:05:55.564Z,72.35
2023-03-06T00:08:24.833Z,73.07
2023-03-06T00:10:56.199Z,72.41
2023-03-06T00:13:30.067Z,72.77
2023-03-06T00:16:02.686Z,72.98
2023-03-06T00:18:33.775Z,72.54
2023-03-06T00:21:07.445Z,72.16
2023-03-06T00:23:38.253Z,72.97
2023-03-06T00:26:11.240Z,72.82
2023-03-06T00:28:42.217Z,73.28
2023-03-06T00:31:13.416Z,72.23
2023-03-06T00:33:44.338Z,72.30
2023-03-06T00:36:15.202Z,72.01
2023-03-06T00:38:45.929Z,72.02
2023-03-06T00:41:16.657Z,71.73
2023-03-06T00:43:47.500Z,72.05
2023-03-06T00:46:18.285Z,72.32
2023-03-06T00:48:49.061Z,72.27
2023-03-06T00:51:21.702Z,71.47
2023-03-06T00:53:52.446Z,72.03
2023-03-06T00:56:23.132Z,71.58
2023-03-06T00:58:53.773Z,71.92
2023-03-06T01:01:24.477Z,72.29
2023-03-06T01:03:55.489Z,72.54
2023-03-06T01:06:26.441Z,72.51
2023-03-06T01:08:57.302Z,71.97
2023-03-06T01:11:29.361Z,72.63
2023-03-06T01:14:00.733Z,72.24
2023-03-06T01:16:31.500Z,72.05
2023-03-06T01:19:02.343Z,71.94
2023-03-06T01:21:33.615Z,72.12
2023-03-06T01:24:04.497Z,72.10
2023-03-06T01:26:35.708Z,71.83
2023-03-06T01:29:07.346Z,71.95
2023-03-06T01:31:38.641Z,71.82
2023-03-06T01:34:09.680Z,72.21
2023-03-06T01:36:40.403Z,71.71
2023-03-06T01:39:11.402Z,71.54
2023-03-06T01:41:42.317Z,71.47
2023-03-06T01:44:14.544Z,71.61
2023-03-06T01:46:46.612Z,71.48
2023-03-06T01:49:22.363Z,70.85
2023-03-06T01:51:56.980Z,71.38
2023-03-06T01:54:30.477Z,71.54
2023-03-06T01:57:04.906Z,71.31
2023-03-06T01:59:37.461Z,70.80
2023-03-06T02:02:10.180Z,70.74
2023-03-06T02:04:42.452Z,71.48
2023-03-06T02:07:13.254Z,71.24
2023-03-06T02:09:43.984Z,71.16
2023-03-06T02:12:18.842Z,70.78
2023-03-06T02:14:50.415Z,71.18
2023-03-06T02:17:23.569Z,71.45
2023-03-06T02:19:55.453Z,71.21
2023-03-06T02:22:35.703Z,71.26
2023-03-06T02:25:13.229Z,70.88
2023-03-06T02:27:44.558Z,71.26
2023-03-06T02:30:18.044Z,70.95
2023-03-06T02:32:48.739Z,71.06
2023-03-06T02:35:22.462Z,70.62
2023-03-06T02:37:54.001Z,71.30
2023-03-06T02:40:25.780Z,71.23
2023-03-06T02:42:58.772Z,70.65
2023-03-06T02:45:34.926Z,70.96
2023-03-06T02:48:06.952Z,71.06
2023-03-06T02:50:37.688Z,71.17
2023-03-06T02:53:09.322Z,71.44
2023-03-06T02:55:40.468Z,71.10
2023-03-06T02:58:11.598Z,71.49
2023-03-06T03:00:42.503Z,70.97
2023-03-06T03:03:13.768Z,71.42
2023-03-06T03:05:44.700Z,70.69
2023-03-06T03:08:19.687Z,70.60
2023-03-06T03:10:52.282Z,70.32
2023-03-06T03:13:23.533Z,70.84
2023-03-06T03:16:02.819Z,70.39
2023-03-06T03:18:33.802Z,70.64
2023-03-06T03:21:08.015Z,70.12
2023-03-06T03:23:38.812Z,70.23
2023-03-06T03:26:15.544Z,70.12
2023-03-06T03:28:49.108Z,70.34
2023-03-06T03:31:21.642Z,70.59
2023-03-06T03:33:53.758Z,70.13
2023-03-06T03:36:26.068Z,70.35
2023-03-06T03:38:58.188Z,70.70
2023-03-06T03:41:29.357Z,70.26
2023-03-06T03:44:00.356Z,70.43
2023-03-06T03:46:31.070Z,69.79
2023-03-06T03:49:03.660Z,69.92
2023-03-06T03:51:35.233Z,70.06
2023-03-06T03:54:06.325Z,70.30
2023-03-06T03:56:42.028Z,70.50
2023-03-06T03:59:21.062Z,70.64
2023-03-06T04:02:05.775Z,70.55
2023-03-06T04:04:40.206Z,70.94
2023-03-06T04:07:11.376Z,71.15
2023-03-06T04:09:42.662Z,70.91
2023-03-06T04:12:13.676Z,71.04
2023-03-06T04:14:45.682Z,71.17
2023-03-06T04:17:16.641Z,70.74
2023-03-06T04:19:48.059Z,71.13
2023-03-06T04:22:20.075Z,70.97
2023-03-06T04:24:51.167Z,71.12
2023-03-06T04:27:22.933Z,70.91
2023-03-06T04:29:56.338Z,70.90
2023-03-06T04:32:27.462Z,71.16
2023-03-06T04:34:58.317Z,71.29
2023-03-06T04:37:31.090Z,71.58
2023-03-06T04:40:01.193Z,71.65
2023-03-06T04:42:32.225Z,71.02
2023-03-06T04:45:02.938Z,70.62
2023-03-06T04:47:33.667Z,70.93
2023-03-06T04:50:04.516Z,70.79
2023-03-06T04:52:35.456Z,70.89
2023-03-06T04:55:08.832Z,70.72
2023-03-06T04:57:40.399Z,70.27
2023-03-06T05:00:16.717Z,70.68
2023-03-06T05:02:48.094Z,70.08
2023-03-06T05:05:20.039Z,70.17
2023-03-06T05:07:50.934Z,70.20
2023-03-06T05:10:22.356Z,70.00
2023-03-06T05:12:52.978Z,69.84
2023-03-06T05:15:23.983Z,69.51
2023-03-06T05:17:56.577Z,69.93
2023-03-06T05:20:28.650Z,70.30
2023-03-06T05:22:59.454Z,70.15
2023-03-06T05:25:30.108Z,70.16
2023-03-06T05:28:00.816Z,70.25
2023-03-06T05:30:31.581Z,70.97
2023-03-06T05:33:02.812Z,70.62
2023-03-06T05:35:33.527Z,70.53
2023-03-06T05:38:04.246Z,70.46
2023-03-06T05:40:35.164Z,70.79
2023-03-06T05:43:06.988Z,72.17
2023-03-06T05:45:38.550Z,77.38
2023-03-06T05:48:10.348Z,78.03
2023-03-06T05:50:41.333Z,72.94
2023-03-06T05:53:12.229Z,70.78
2023-03-06T05:55:43.121Z,70.42
2023-03-06T05:58:13.860Z,69.94
2023-03-06T06:00:44.716Z,69.89
2023-03-06T06:03:15.482Z,69.60
2023-03-06T06:05:46.257Z,68.93
2023-03-06T06:08:17.107Z,69.22
2023-03-06T06:10:47.961Z,69.60
2023-03-06T06:13:18.708Z,69.55
2023-03-06T06:15:49.437Z,69.60
2023-03-06T06:18:20.678Z,69.56
2023-03-06T06:20:51.508Z,69.73
2023-03-06T06:23:22.420Z,69.42
2023-03-06T06:25:53.228Z,69.64
2023-03-06T06:28:23.903Z,69.34
2023-03-06T06:30:54.927Z,69.03
2023-03-06T06:33:26.645Z,69.26
2023-03-06T06:35:57.516Z,68.65
2023-03-06T06:38:28.226Z,67.97
2023-03-06T06:41:32.994Z,68.46
2023-03-06T06:43:49.657Z,68.21
2023-03-06T06:47:09.239Z,68.17
2023-03-06T06:49:12.045Z,68.50
2023-03-06T06:51:43.325Z,68.08
2023-03-06T06:54:14.265Z,67.85
2023-03-06T06:56:44.902Z,68.08
2023-03-06T06:59:17.401Z,67.82
2023-03-06T07:01:48.583Z,67.83
2023-03-06T07:04:20.163Z,67.90
2023-03-06T07:06:51.164Z,67.74
2023-03-06T07:09:22.442Z,67.62
2023-03-06T07:11:53.454Z,67.71
2023-03-06T07:14:24.321Z,68.34
2023-03-06T07:16:55.143Z,68.34
2023-03-06T07:19:26.355Z,67.76
2023-03-06T07:21:57.131Z,68.04
2023-03-06T07:24:28.128Z,67.79
2023-03-06T07:26:58.867Z,67.91
2023-03-06T07:29:29.664Z,67.80
2023-03-06T07:32:00.508Z,68.05
2023-03-06T07:34:31.526Z,68.20
2023-03-06T07:37:02.571Z,67.92
2023-03-06T07:39:33.334Z,67.77
2023-03-06T07:42:04.767Z,67.94
2023-03-06T07:44:39.118Z,67.79
2023-03-06T07:47:09.957Z,67.04
2023-03-06T07:49:40.829Z,66.74
2023-03-06T07:52:12.816Z,66.62
2023-03-06T07:54:43.472Z,66.57
2023-03-06T07:57:14.123Z,66.17
2023-03-06T07:59:44.792Z,66.00
2023-03-06T08:02:15.565Z,66.31
2023-03-06T08:04:46.296Z,66.47
2023-03-06T08:07:17.076Z,65.47
2023-03-06T08:09:47.765Z,65.29
2023-03-06T08:12:18.705Z,66.09
2023-03-06T08:14:49.303Z,65.20
2023-03-06T08:17:20.096Z,65.23
2023-03-06T08:19:50.774Z,65.11
2023-03-06T08:22:21.465Z,64.76
2023-03-06T08:24:55.037Z,63.89
2023-03-06T08:27:25.795Z,63.52
2023-03-06T08:29:56.426Z,63.28
2023-03-06T08:32:27.592Z,63.10
2023-03-06T08:34:58.376Z,63.32
2023-03-06T08:37:29.031Z,62.99
2023-03-06T08:39:59.906Z,62.66
2023-03-06T08:42:30.916Z,62.67
2023-03-06T08:45:01.614Z,62.73
2023-03-06T08:47:32.396Z,63.11
2023-03-06T08:50:03.259Z,62.55
2023-03-06T08:52:33.889Z,62.57
2023-03-06T08:55:05.234Z,63.29
2023-03-06T08:57:37.011Z,63.06
2023-03-06T09:00:10.694Z,63.67
2023-03-06T09:02:41.389Z,63.69
2023-03-06T09:05:13.198Z,62.93
2023-03-06T09:07:43.902Z,62.73
2023-03-06T09:10:18.410Z,63.32
2023-03-06T09:12:52.493Z,63.60
2023-03-06T09:15:26.096Z,63.79
2023-03-06T09:17:57.011Z,63.75
2023-03-06T09:20:27.869Z,64.24
2023-03-06T09:22:58.612Z,64.30
2023-03-06T09:25:29.216Z,65.02
2023-03-06T09:28:10.961Z,65.42
2023-03-06T09:30:44.071Z,65.46
2023-03-06T09:33:15.019Z,65.55
2023-03-06T09:35:50.901Z,66.38
2023-03-06T09:38:22.415Z,66.10
2023-03-06T09:41:11.736Z,65.92
2023-03-06T09:43:45.264Z,65.92
2023-03-06T09:46:26.144Z,66.22
2023-03-06T09:49:15.153Z,66.33
2023-03-06T09:52:00.361Z,65.91
2023-03-06T09:54:41.601Z,65.21
2023-03-06T09:57:19.875Z,64.13
2023-03-06T09:59:52.188Z,63.92
2023-03-06T10:02:32.606Z,63.65
2023-03-06T10:05:09.311Z,63.95
2023-03-06T10:07:47.982Z,63.25
2023-03-06T10:10:23.801Z,63.37
2023-03-06T10:13:04.299Z,63.03
2023-03-06T10:15:39.505Z,62.84
2023-03-06T10:18:13.113Z,62.73
2023-03-06T10:20:50.927Z,62.75
2023-03-06T10:23:37.343Z,62.93
2023-03-06T10:26:14.913Z,62.74
2023-03-06T10:28:58.083Z,62.84
2023-03-06T10:31:29.657Z,63.34
2023-03-06T10:34:12.728Z,63.50
2023-03-06T10:36:43.378Z,63.73
2023-03-06T10:39:19.788Z,63.69
2023-03-06T10:41:51.494Z,64.39
2023-03-06T10:44:26.684Z,64.67
2023-03-06T10:46:57.983Z,64.57
2023-03-06T10:49:32.886Z,65.11
2023-03-06T10:52:06.908Z,65.18
2023-03-06T10:54:40.474Z,65.40
2023-03-06T10:57:29.493Z,64.64
2023-03-06T11:00:04.716Z,64.88
2023-03-06T11:02:38.534Z,64.83
2023-03-06T11:05:21.472Z,65.00
2023-03-06T11:07:59.278Z,65.27
2023-03-06T11:10:31.815Z,65.53
2023-03-06T11:13:08.750Z,65.95
2023-03-06T11:15:39.477Z,66.64
2023-03-06T11:18:31.258Z,66.85
2023-03-06T11:21:02.815Z,67.01
2023-03-06T11:23:42.416Z,67.26
2023-03-06T11:26:38.787Z,67.61
2023-03-06T11:29:43.934Z,68.11
2023-03-06T11:32:21.892Z,68.69
2023-03-06T11:34:58.896Z,69.02
2023-03-06T11:37:42.762Z,69.10
2023-03-06T11:40:21.127Z,69.40
2023-03-06T11:43:00.881Z,69.51
2023-03-06T11:45:37.317Z,69.69
2023-03-06T11:48:22.822Z,69.67
2023-03-06T11:50:57.266Z,69.54
2023-03-06T11:53:33.152Z,69.66
2023-03-06T11:56:15.755Z,69.73
2023-03-06T11:59:16.990Z,69.48
2023-03-06T12:02:00.604Z,69.94
2023-03-06T12:04:47.119Z,70.07
2023-03-06T12:07:27.889Z,70.59
2023-03-06T12:10:18.384Z,71.09
2023-03-06T12:13:10.837Z,71.56
2023-03-06T12:15:59.405Z,71.58
2023-03-06T12:18:44.204Z,71.06
2023-03-06T12:21:28.553Z,70.64
2023-03-06T12:24:18.201Z,70.64
2023-03-06T12:27:14.470Z,70.52
2023-03-06T12:29:59.443Z,69.97
2023-03-06T12:32:45.007Z,70.17
2023-03-06T12:35:44.804Z,70.01
2023-03-06T12:38:39.137Z,70.06
2023-03-06T12:41:23.214Z,70.04
2023-03-06T12:44:07.558Z,70.23
2023-03-06T12:46:44.429Z,70.52
2023-03-06T12:49:31.968Z,70.57
2023-03-06T12:52:06.030Z,70.28
2023-03-06T12:54:40.931Z,70.73
2023-03-06T12:57:15.420Z,70.82
2023-03-06T12:59:48.541Z,70.79
2023-03-06T13:02:45.800Z,70.17
2023-03-06T13:05:35.088Z,69.79
2023-03-06T13:08:35.535Z,69.83
2023-03-06T13:11:31.679Z,70.02
2023-03-06T13:14:19.734Z,69.03
2023-03-06T13:16:50.552Z,69.11
2023-03-06T13:19:24.287Z,69.59
2023-03-06T13:22:24.872Z,70.32
2023-03-06T13:25:49.003Z,70.42
2023-03-06T13:28:44.806Z,70.84
2023-03-06T13:31:27.768Z,71.11
2023-03-06T13:34:01.138Z,71.65
2023-03-06T13:36:33.961Z,71.76
2023-03-06T13:39:09.576Z,71.78
2023-03-06T13:41:58.206Z,71.79
2023-03-06T13:44:52.983Z,71.61
2023-03-06T13:50:45.381Z,71.24
2023-03-06T13:53:44.571Z,70.92
2023-03-06T13:56:35.976Z,71.18
2023-03-06T13:59:34.101Z,71.55
2023-03-06T14:02:24.752Z,71.44
2023-03-06T14:05:00.898Z,71.48
2023-03-06T14:07:33.467Z,71.36
2023-03-06T14:10:20.508Z,71.38
2023-03-06T14:13:15.058Z,71.11
2023-03-06T14:15:48.035Z,71.07
2023-03-06T14:18:19.743Z,71.00
2023-03-06T14:20:54.984Z,70.75
2023-03-06T14:23:35.576Z,70.59
2023-03-06T14:26:15.549Z,70.94
2023-03-06T14:28:55.230Z,70.39
2023-03-06T14:31:28.854Z,70.51
2023-03-06T14:34:02.754Z,70.44
2023-03-06T14:36:37.630Z,69.98
2023-03-06T14:39:13.701Z,70.41
2023-03-06T14:41:44.844Z,70.37
2023-03-06T14:44:21.719Z,70.51
2023-03-06T14:46:55.043Z,70.78
2023-03-06T14:49:27.870Z,70.45
2023-03-06T14:52:00.525Z,70.19
2023-03-06T14:54:33.632Z,70.25
2023-03-06T14:57:06.848Z,69.60
2023-03-06T14:59:44.878Z,69.47
2023-03-06T15:02:22.396Z,69.38
2023-03-06T15:04:55.799Z,69.75
2023-03-06T15:07:30.408Z,69.15
2023-03-06T15:10:02.405Z,69.13
2023-03-06T15:12:38.712Z,68.69
2023-03-06T15:18:35.446Z,67.75
2023-03-06T15:21:19.336Z,68.24
2023-03-06T15:23:51.956Z,68.37
2023-03-06T15:26:29.118Z,68.44
2023-03-06T15:29:09.260Z,68.40
2023-03-06T15:31:42.045Z,68.76
2023-03-06T15:34:29.372Z,68.78
2023-03-06T15:37:00.467Z,68.97
2023-03-06T15:39:39.784Z,68.70
2023-03-06T15:42:22.368Z,68.68
2023-03-06T15:44:55.090Z,68.82
2023-03-06T15:47:25.748Z,68.69
2023-03-06T15:49:56.962Z,68.77
2023-03-06T15:52:27.754Z,68.98
2023-03-06T15:54:58.425Z,69.34
2023-03-06T15:57:30.296Z,69.40
2023-03-06T16:00:03.959Z,69.64
2023-03-06T16:02:55.580Z,70.31
2023-03-06T16:05:28.438Z,70.23
2023-03-06T16:07:59.634Z,70.58
2023-03-06T16:10:34.056Z,70.58
2023-03-06T16:13:09.723Z,71.23
2023-03-06T16:15:42.540Z,71.64
2023-03-06T16:18:14.952Z,72.18
2023-03-06T16:20:46.014Z,72.42
2023-03-06T16:23:16.748Z,72.95
2023-03-06T16:25:50.792Z,73.70
2023-03-06T16:28:21.478Z,73.77
2023-03-06T16:30:52.253Z,74.48
2023-03-06T16:33:23.137Z,75.07
2023-03-06T16:35:54.326Z,74.99
2023-03-06T16:38:25.186Z,75.59
2023-03-06T16:40:55.892Z,75.89
2023-03-06T16:43:26.609Z,76.08
2023-03-06T16:45:58.286Z,76.27
2023-03-06T16:48:29.161Z,76.31
2023-03-06T16:50:59.878Z,76.34
2023-03-06T16:53:30.593Z,76.32
2023-03-06T16:56:01.423Z,76.31
2023-03-06T16:58:32.525Z,76.79
2023-03-06T17:01:03.965Z,76.53
2023-03-06T17:03:35.006Z,76.72
2023-03-06T17:06:13.937Z,76.18
2023-03-06T17:08:45.428Z,75.86
2023-03-06T17:11:17.142Z,75.41
2023-03-06T17:13:47.886Z,75.05
2023-03-06T17:16:19.144Z,75.47
2023-03-06T17:18:50.299Z,75.65
2023-03-06T17:21:21.154Z,75.37
2023-03-06T17:23:51.874Z,75.06
2023-03-06T17:26:22.802Z,75.05
2023-03-06T17:28:54.389Z,75.54
2023-03-06T17:31:26.814Z,75.60
2023-03-06T17:34:00.712Z,75.23
2023-03-06T17:36:32.736Z,75.56
2023-03-06T17:39:07.393Z,75.52
2023-03-06T17:41:38.106Z,75.76
2023-03-06T17:44:10.984Z,75.91
2023-03-06T17:46:41.708Z,76.08
2023-03-06T17:49:12.764Z,76.02
2023-03-06T17:51:43.476Z,76.14
2023-03-06T17:54:14.206Z,76.06
2023-03-06T17:56:45.411Z,76.50
2023-03-06T17:59:16.254Z,76.03
2023-03-06T18:01:47.153Z,76.04
2023-03-06T18:04:18.081Z,76.97
2023-03-06T18:06:49.107Z,76.26
2023-03-06T18:09:19.912Z,76.66
2023-03-06T18:11:50.683Z,76.08
2023-03-06T18:14:21.349Z,76.43
2023-03-06T18:16:52.148Z,76.61
2023-03-06T18:19:22.805Z,76.29
2023-03-06T18:21:53.589Z,76.50
2023-03-06T18:24:25.137Z,76.76
2023-03-06T18:26:56.157Z,76.75
2023-03-06T18:29:26.989Z,76.49
2023-03-06T18:32:02.123Z,76.72
2023-03-06T18:34:33.540Z,76.24
2023-03-06T18:37:04.202Z,76.52
2023-03-06T18:39:39.403Z,76.46
2023-03-06T18:42:11.353Z,76.26
2023-03-06T18:44:44.032Z,76.39
2023-03-06T18:47:14.906Z,76.48
2023-03-06T18:49:46.388Z,76.18
2023-03-06T18:52:17.225Z,76.12
2023-03-06T18:54:50.525Z,76.09
2023-03-06T18:57:21.335Z,76.45
2023-03-06T18:59:52.259Z,76.02
2023-03-06T19:02:23.130Z,76.14
2023-03-06T19:04:54.652Z,76.09
2023-03-06T19:07:25.709Z,76.25
2023-03-06T19:09:56.323Z,76.44
2023-03-06T19:12:27.046Z,76.38
2023-03-06T19:14:58.990Z,76.42
2023-03-06T19:17:31.429Z,76.32
2023-03-06T19:20:02.148Z,76.28
2023-03-06T19:22:35.082Z,76.10
2023-03-06T19:25:07.779Z,76.25
2023-03-06T19:27:39.510Z,75.87
2023-03-06T19:30:12.945Z,75.58
2023-03-06T19:32:46.987Z,76.03
2023-03-06T19:35:18.695Z,75.84
2023-03-06T19:37:49.492Z,75.95
2023-03-06T19:40:20.360Z,75.85
2023-03-06T19:42:51.389Z,75.63
2023-03-06T19:45:22.411Z,76.08
2023-03-06T19:47:55.542Z,75.94
2023-03-06T19:50:29.534Z,76.11
2023-03-06T19:53:00.357Z,75.86
2023-03-06T19:55:31.814Z,76.31
2023-03-06T19:58:02.856Z,76.03
2023-03-06T20:00:34.637Z,75.79
2023-03-06T20:03:05.656Z,76.28
2023-03-06T20:05:36.371Z,76.17
2023-03-06T20:08:07.825Z,75.66
2023-03-06T20:10:40.353Z,76.06
2023-03-06T20:13:11.137Z,76.19
2023-03-06T20:15:41.896Z,75.88
2023-03-06T20:18:12.886Z,76.39
2023-03-06T20:20:45.324Z,75.89
2023-03-06T20:23:16.726Z,76.38
2023-03-06T20:25:47.688Z,76.38
2023-03-06T20:28:21.410Z,76.46
2023-03-06T20:30:52.242Z,76.27
2023-03-06T20:33:26.592Z,76.24
2023-03-06T20:36:00.649Z,76.23
2023-03-06T20:38:31.754Z,75.69
2023-03-06T20:41:03.113Z,75.78
2023-03-06T20:43:33.820Z,76.00
2023-03-06T20:46:07.015Z,76.06
2023-03-06T20:48:40.529Z,75.88
2023-03-06T20:51:19.022Z,75.72
2023-03-06T20:53:54.814Z,75.27
2023-03-06T20:56:27.121Z,75.73
2023-03-06T20:58:58.191Z,75.35
2023-03-06T21:01:30.729Z,75.34
2023-03-06T21:04:02.426Z,75.59
2023-03-06T21:06:34.294Z,75.80
2023-03-06T21:09:06.468Z,75.78
2023-03-06T21:11:37.953Z,75.88
2023-03-06T21:14:08.649Z,75.90
2023-03-06T21:16:39.668Z,75.77
2023-03-06T21:19:11.477Z,75.60
2023-03-06T21:21:42.322Z,76.01
2023-03-06T21:24:13.872Z,75.91
2023-03-06T21:26:45.269Z,75.78
2023-03-06T21:29:18.936Z,76.12
2023-03-06T21:32:11.080Z,76.32
2023-03-06T21:34:42.090Z,76.49
2023-03-06T21:37:12.817Z,76.55
2023-03-06T21:39:43.492Z,76.60
2023-03-06T21:42:14.706Z,76.36
2023-03-06T21:44:45.876Z,76.49
2023-03-06T21:47:17.476Z,76.35
2023-03-06T21:49:50.806Z,76.27
2023-03-06T21:52:21.963Z,76.38
2023-03-06T21:54:54.415Z,76.14
2023-03-06T21:57:25.825Z,75.88
2023-03-06T21:59:57.415Z,75.91
2023-03-06T22:02:29.286Z,75.87
2023-03-06T22:05:00.671Z,75.74
2023-03-06T22:07:37.424Z,75.82
2023-03-06T22:10:12.141Z,75.54
2023-03-06T22:12:43.237Z,75.49
2023-03-06T22:15:14.492Z,75.00
2023-03-06T22:17:45.406Z,74.74
2023-03-06T22:20:16.840Z,74.75
2023-03-06T22:22:47.748Z,74.92
2023-03-06T22:25:18.826Z,74.49
2023-03-06T22:27:49.474Z,74.45
2023-03-06T22:30:20.769Z,74.79
2023-03-06T22:32:53.065Z,75.04
2023-03-06T22:35:23.782Z,74.74
2023-03-06T22:37:54.707Z,74.94
2023-03-06T22:40:25.381Z,74.77
2023-03-06T22:42:56.188Z,74.66
2023-03-06T22:45:27.017Z,74.92
2023-03-06T22:48:10.106Z,74.55
2023-03-06T22:50:41.894Z,74.93
2023-03-06T22:53:12.555Z,74.30
2023-03-06T22:55:43.310Z,74.21
2023-03-06T22:58:14.059Z,74.74
2023-03-06T23:00:44.743Z,74.76
2023-03-06T23:03:15.636Z,74.26
2023-03-06T23:05:46.613Z,74.65
2023-03-06T23:08:17.338Z,74.10
2023-03-06T23:10:48.036Z,74.77
2023-03-06T23:13:37.648Z,74.69
2023-03-06T23:16:27.770Z,75.11
2023-03-06T23:19:17.381Z,74.98
2023-03-06T23:22:07.142Z,74.56
2023-03-06T23:24:56.541Z,74.79
2023-03-06T23:27:27.367Z,74.88
2023-03-06T23:29:59.210Z,74.69
2023-03-06T23:32:30.141Z,74.94
2023-03-06T23:35:01.240Z,75.31
2023-03-06T23:37:32.073Z,74.87
2023-03-06T23:40:03.042Z,74.77
2023-03-06T23:42:33.998Z,75.03
2023-03-06T23:45:05.257Z,74.80
2023-03-06T23:47:36.543Z,75.06
2023-03-06T23:50:08.879Z,75.00
2023-03-06T23:52:40.425Z,75.01
2023-03-06T23:55:12.130Z,74.79
2023-03-06T23:57:42.788Z,75.20
